createdAt,value
2019-06-26T00:02:05.470Z,82.60
2019-06-26T00:04:35.986Z,82.40
2019-06-26T00:07:06.330Z,82.20
2019-06-26T00:09:36.649Z,82.50
2019-06-26T00:12:08.518Z,82.00
2019-06-26T00:14:39.030Z,81.50
2019-06-26T00:17:09.478Z,81.30
2019-06-26T00:19:39.899Z,81.20
2019-06-26T00:22:10.020Z,81.50
2019-06-26T00:24:40.423Z,81.70
2019-06-26T00:27:10.342Z,82.10
2019-06-26T00:29:40.496Z,82.50
2019-06-26T00:32:10.743Z,82.90
2019-06-26T00:34:40.959Z,83.80
2019-06-26T00:37:11.280Z,83.70
2019-06-26T00:39:41.718Z,84.40
2019-06-26T00:42:12.125Z,83.70
2019-06-26T00:44:42.352Z,84.10
2019-06-26T00:47:12.672Z,85.00
2019-06-26T00:49:43.034Z,85.30
2019-06-26T00:52:13.226Z,86.00
2019-06-26T00:54:43.440Z,86.30
2019-06-26T00:57:13.770Z,86.20
2019-06-26T00:59:43.644Z,86.20
2019-06-26T01:02:13.559Z,86.10
2019-06-26T01:04:48.197Z,86.20
2019-06-26T01:07:18.516Z,86.00
2019-06-26T01:09:48.790Z,86.20
2019-06-26T01:12:19.069Z,86.20
2019-06-26T01:14:49.289Z,86.50
2019-06-26T01:17:19.533Z,86.80
2019-06-26T01:19:49.844Z,86.60
2019-06-26T01:22:19.760Z,86.60
2019-06-26T01:24:49.662Z,86.50
2019-06-26T01:27:19.984Z,86.50
2019-06-26T01:29:51.224Z,86.80
2019-06-26T01:32:21.556Z,86.40
2019-06-26T01:34:51.792Z,86.90
2019-06-26T01:37:21.720Z,86.40
2019-06-26T01:39:51.913Z,86.40
2019-06-26T01:42:22.454Z,86.50
2019-06-26T01:44:52.676Z,87.20
2019-06-26T01:47:22.910Z,86.60
2019-06-26T01:49:52.802Z,86.40
2019-06-26T01:52:23.037Z,86.50
2019-06-26T01:54:53.252Z,86.40
2019-06-26T01:57:23.201Z,86.70
2019-06-26T01:59:53.475Z,86.70
2019-06-26T02:02:23.411Z,86.70
2019-06-26T02:04:53.753Z,86.80
2019-06-26T02:07:24.021Z,86.80
2019-06-26T02:09:54.151Z,88.00
2019-06-26T02:12:24.392Z,87.60
2019-06-26T02:14:54.423Z,88.20
2019-06-26T02:17:24.745Z,88.30
2019-06-26T02:19:54.793Z,88.70
2019-06-26T02:22:24.961Z,88.70
2019-06-26T02:24:55.172Z,88.70
2019-06-26T02:27:26.609Z,88.50
2019-06-26T02:29:56.410Z,88.40
2019-06-26T02:32:26.625Z,89.00
2019-06-26T02:34:56.836Z,88.30
2019-06-26T02:37:27.054Z,88.70
2019-06-26T02:39:57.177Z,88.50
2019-06-26T02:42:27.495Z,88.80
2019-06-26T02:44:57.397Z,88.40
2019-06-26T02:47:27.638Z,88.60
2019-06-26T02:49:57.836Z,88.50
2019-06-26T02:52:28.075Z,88.40
2019-06-26T02:54:57.980Z,88.10
2019-06-26T02:57:27.941Z,88.20
2019-06-26T02:59:59.322Z,87.80
2019-06-26T03:02:29.662Z,87.80
2019-06-26T03:04:59.867Z,88.30
2019-06-26T03:07:30.212Z,88.20
2019-06-26T03:10:00.218Z,87.50
2019-06-26T03:12:30.450Z,87.60
2019-06-26T03:15:08.732Z,87.90
2019-06-26T03:17:32.778Z,87.90
2019-06-26T03:20:03.933Z,88.20
2019-06-26T03:22:33.895Z,87.90
2019-06-26T03:25:05.800Z,88.20
2019-06-26T03:27:36.130Z,88.20
2019-06-26T03:30:06.977Z,89.00
2019-06-26T03:32:37.368Z,89.80
2019-06-26T03:35:08.474Z,89.80
2019-06-26T03:37:38.466Z,90.10
2019-06-26T03:40:09.152Z,90.10
2019-06-26T03:42:39.399Z,90.00
2019-06-26T03:45:24.452Z,90.00
2019-06-26T03:47:43.088Z,89.20
2019-06-26T03:50:13.569Z,89.30
2019-06-26T03:52:43.549Z,89.90
2019-06-26T03:55:14.345Z,89.90
2019-06-26T03:57:44.597Z,90.10
2019-06-26T04:00:15.104Z,90.00
2019-06-26T04:02:45.033Z,89.80
2019-06-26T04:05:15.032Z,90.00
2019-06-26T04:07:45.379Z,89.90
2019-06-26T04:10:16.099Z,90.10
2019-06-26T04:12:46.411Z,90.10
2019-06-26T04:15:16.426Z,90.10
2019-06-26T04:17:46.324Z,90.10
2019-06-26T04:20:16.496Z,90.20
2019-06-26T04:22:47.659Z,90.10
2019-06-26T04:25:19.235Z,90.10
2019-06-26T04:27:49.473Z,89.80
2019-06-26T04:30:20.255Z,89.90
2019-06-26T04:32:50.690Z,89.80
2019-06-26T04:35:20.689Z,89.50
2019-06-26T04:37:50.543Z,89.30
2019-06-26T04:40:21.088Z,89.70
2019-06-26T04:42:51.428Z,89.00
2019-06-26T04:45:22.645Z,88.80
2019-06-26T04:47:52.950Z,88.90
2019-06-26T04:50:23.299Z,88.70
2019-06-26T04:52:53.710Z,89.00
2019-06-26T04:55:24.034Z,88.50
2019-06-26T04:57:54.345Z,88.30
2019-06-26T05:00:25.068Z,88.00
2019-06-26T05:02:55.302Z,88.20
2019-06-26T05:05:38.542Z,87.90
2019-06-26T05:07:57.179Z,87.50
2019-06-26T05:10:27.511Z,86.90
2019-06-26T05:12:57.932Z,86.50
2019-06-26T05:15:27.981Z,86.40
2019-06-26T05:17:58.283Z,86.10
2019-06-26T05:20:28.587Z,85.80
2019-06-26T05:22:59.369Z,86.00
2019-06-26T05:25:29.378Z,86.10
2019-06-26T05:27:59.676Z,86.10
2019-06-26T05:30:29.994Z,86.70
2019-06-26T05:33:00.260Z,86.50
2019-06-26T05:35:30.425Z,86.80
2019-06-26T05:38:02.175Z,85.40
2019-06-26T05:40:33.056Z,85.20
2019-06-26T05:43:03.455Z,84.70
2019-06-26T05:45:33.707Z,84.50
2019-06-26T05:48:04.084Z,85.20
2019-06-26T05:50:34.228Z,86.60
2019-06-26T05:53:04.630Z,85.20
2019-06-26T05:55:34.870Z,84.60
2019-06-26T05:58:05.270Z,84.40
2019-06-26T06:00:35.506Z,84.30
2019-06-26T06:03:05.834Z,84.60
2019-06-26T06:05:37.060Z,84.50
2019-06-26T06:08:07.071Z,84.90
2019-06-26T06:10:37.604Z,84.20
2019-06-26T06:13:07.855Z,83.60
2019-06-26T06:15:38.086Z,83.50
2019-06-26T06:18:08.429Z,83.00
2019-06-26T06:20:39.539Z,83.10
2019-06-26T06:23:09.796Z,82.60
2019-06-26T06:25:40.107Z,82.80
2019-06-26T06:28:10.419Z,81.60
2019-06-26T06:30:40.671Z,82.60
2019-06-26T06:33:10.996Z,81.50
2019-06-26T06:35:41.440Z,80.30
2019-06-26T06:38:11.746Z,79.70
2019-06-26T06:40:42.183Z,79.70
2019-06-26T06:43:13.335Z,78.10
2019-06-26T06:45:43.827Z,77.60
2019-06-26T06:48:14.062Z,76.30
2019-06-26T06:50:44.353Z,75.50
2019-06-26T06:53:14.629Z,76.00
2019-06-26T06:55:44.877Z,75.30
2019-06-26T06:58:14.834Z,74.00
2019-06-26T07:00:44.749Z,74.20
2019-06-26T07:03:14.955Z,73.40
2019-06-26T07:05:45.118Z,74.00
2019-06-26T07:08:15.362Z,74.10
2019-06-26T07:10:45.752Z,73.00
2019-06-26T07:13:16.071Z,73.30
2019-06-26T07:15:46.350Z,71.10
2019-06-26T07:18:16.731Z,69.10
2019-06-26T07:20:46.718Z,67.60
2019-06-26T07:23:18.110Z,67.70
2019-06-26T07:25:48.620Z,66.10
2019-06-26T07:28:18.780Z,66.50
2019-06-26T07:30:49.157Z,66.50
2019-06-26T07:33:19.311Z,66.90
2019-06-26T07:35:49.707Z,66.20
2019-06-26T07:38:20.051Z,65.80
2019-06-26T07:40:50.359Z,64.70
2019-06-26T07:43:20.572Z,63.20
2019-06-26T07:45:50.874Z,64.50
2019-06-26T07:48:21.073Z,64.10
2019-06-26T07:50:51.369Z,63.80
2019-06-26T07:53:21.623Z,63.50
2019-06-26T07:55:52.101Z,64.30
2019-06-26T07:58:22.727Z,62.90
2019-06-26T08:00:52.909Z,63.90
2019-06-26T08:03:23.475Z,62.80
2019-06-26T08:05:53.605Z,61.60
2019-06-26T08:08:25.667Z,62.20
2019-06-26T08:10:55.917Z,60.60
2019-06-26T08:13:26.232Z,60.20
2019-06-26T08:15:56.551Z,61.00
2019-06-26T08:18:26.765Z,60.40
2019-06-26T08:21:11.605Z,59.90
2019-06-26T08:23:28.589Z,61.10
2019-06-26T08:25:58.959Z,59.80
2019-06-26T08:28:29.168Z,58.90
2019-06-26T08:30:59.385Z,58.40
2019-06-26T08:33:29.267Z,57.80
2019-06-26T08:35:59.172Z,58.60
2019-06-26T08:38:29.329Z,55.90
2019-06-26T08:40:59.228Z,56.90
2019-06-26T08:43:31.506Z,55.30
2019-06-26T08:46:00.801Z,54.20
2019-06-26T08:48:39.570Z,53.40
2019-06-26T08:51:01.822Z,53.30
2019-06-26T08:53:31.611Z,54.10
2019-06-26T08:56:01.833Z,52.90
2019-06-26T08:58:31.684Z,52.40
2019-06-26T09:01:01.980Z,51.20
2019-06-26T09:03:32.376Z,51.40
2019-06-26T09:06:02.585Z,51.10
2019-06-26T09:08:32.787Z,51.40
2019-06-26T09:11:03.235Z,50.70
2019-06-26T09:13:33.591Z,50.20
2019-06-26T09:16:03.925Z,50.90
2019-06-26T09:18:35.759Z,50.80
2019-06-26T09:21:06.261Z,51.00
2019-06-26T09:23:36.225Z,49.10
2019-06-26T09:26:06.503Z,49.00
2019-06-26T09:28:36.478Z,47.80
2019-06-26T09:31:07.040Z,48.50
2019-06-26T09:33:39.226Z,48.40
2019-06-26T09:36:09.529Z,50.80
2019-06-26T09:38:39.900Z,49.70
2019-06-26T09:41:11.204Z,49.20
2019-06-26T09:43:41.620Z,48.00
2019-06-26T09:46:11.863Z,49.80
2019-06-26T09:48:52.113Z,49.00
2019-06-26T09:51:13.747Z,48.90
2019-06-26T09:53:47.673Z,49.80
2019-06-26T09:56:15.550Z,47.50
2019-06-26T09:58:46.267Z,47.40
2019-06-26T10:01:16.568Z,45.90
2019-06-26T10:03:47.201Z,45.50
2019-06-26T10:06:34.557Z,44.40
2019-06-26T10:09:12.203Z,43.30
2019-06-26T10:11:48.322Z,44.30
2019-06-26T10:14:23.853Z,43.70
2019-06-26T10:16:53.976Z,44.00
2019-06-26T10:19:23.877Z,43.70
2019-06-26T10:21:54.097Z,43.60
2019-06-26T10:24:24.331Z,42.10
2019-06-26T10:26:54.688Z,44.80
2019-06-26T10:29:25.095Z,43.20
2019-06-26T10:31:55.106Z,43.00
2019-06-26T10:34:25.441Z,41.80
2019-06-26T10:36:55.857Z,40.30
2019-06-26T10:39:26.083Z,41.00
2019-06-26T10:41:56.106Z,40.70
2019-06-26T10:44:26.324Z,40.40
2019-06-26T10:46:57.329Z,39.60
2019-06-26T10:49:28.035Z,38.60
2019-06-26T10:51:58.421Z,39.10
2019-06-26T10:54:28.350Z,37.90
2019-06-26T10:57:00.823Z,35.70
2019-06-26T10:59:31.142Z,35.30
2019-06-26T11:02:01.155Z,37.50
2019-06-26T11:04:31.444Z,35.40
2019-06-26T11:07:01.836Z,35.40
2019-06-26T11:09:32.130Z,34.50
2019-06-26T11:12:02.055Z,34.40
2019-06-26T11:14:32.313Z,34.30
2019-06-26T11:17:02.353Z,35.10
2019-06-26T11:19:43.188Z,33.40
2019-06-26T11:22:04.850Z,33.40
2019-06-26T11:24:35.263Z,32.60
2019-06-26T11:27:05.702Z,32.50
2019-06-26T11:29:35.710Z,30.90
2019-06-26T11:32:09.326Z,30.80
2019-06-26T11:34:37.824Z,30.60
2019-06-26T11:37:07.841Z,31.40
2019-06-26T11:39:38.256Z,30.60
2019-06-26T11:42:08.535Z,31.70
2019-06-26T11:44:39.040Z,31.30
2019-06-26T11:47:09.565Z,29.70
2019-06-26T11:49:41.028Z,32.00
2019-06-26T11:52:11.476Z,31.30
2019-06-26T11:54:41.952Z,34.00
2019-06-26T11:57:12.173Z,31.90
2019-06-26T11:59:42.801Z,31.30
2019-06-26T12:02:13.429Z,30.80
2019-06-26T12:04:43.719Z,30.70
2019-06-26T12:07:15.973Z,30.00
2019-06-26T12:09:46.000Z,30.30
2019-06-26T12:12:15.988Z,31.60
2019-06-26T12:14:46.217Z,28.70
2019-06-26T12:17:16.821Z,29.90
2019-06-26T12:19:47.185Z,32.10
2019-06-26T12:22:17.478Z,31.40
2019-06-26T12:24:47.589Z,29.00
2019-06-26T12:27:17.598Z,27.70
2019-06-26T12:29:47.938Z,28.50
2019-06-26T12:32:26.193Z,28.20
2019-06-26T12:34:57.909Z,29.40
2019-06-26T12:37:37.471Z,28.80
2019-06-26T12:40:03.452Z,29.50
2019-06-26T12:42:36.754Z,30.90
2019-06-26T12:45:07.568Z,30.00
2019-06-26T12:47:38.697Z,28.40
2019-06-26T12:50:08.539Z,29.30
2019-06-26T12:52:38.551Z,28.10
2019-06-26T12:55:12.244Z,27.50
2019-06-26T12:57:42.845Z,28.20
2019-06-26T13:00:14.912Z,27.60
2019-06-26T13:02:45.290Z,28.40
2019-06-26T13:05:17.097Z,28.00
2019-06-26T13:07:47.656Z,27.20
2019-06-26T13:10:18.217Z,27.10
2019-06-26T13:12:48.128Z,26.90
2019-06-26T13:15:18.340Z,26.30
2019-06-26T13:17:48.919Z,27.00
2019-06-26T13:20:21.998Z,27.10
2019-06-26T13:22:52.282Z,26.70
2019-06-26T13:25:22.262Z,26.30
2019-06-26T13:27:52.761Z,26.60
2019-06-26T13:30:25.773Z,26.80
2019-06-26T13:32:55.929Z,26.80
2019-06-26T13:35:38.105Z,26.60
2019-06-26T13:38:08.462Z,26.50
2019-06-26T13:40:40.958Z,27.60
2019-06-26T13:43:10.370Z,26.10
2019-06-26T13:45:42.481Z,26.80
2019-06-26T13:48:14.294Z,26.60
2019-06-26T13:50:44.680Z,28.40
2019-06-26T13:53:14.801Z,27.40
2019-06-26T13:55:45.022Z,26.30
2019-06-26T13:58:27.030Z,26.20
2019-06-26T14:00:57.251Z,26.30
2019-06-26T14:03:27.481Z,27.40
2019-06-26T14:05:57.718Z,26.40
2019-06-26T14:08:27.573Z,26.70
2019-06-26T14:10:57.511Z,26.80
2019-06-26T14:13:27.682Z,27.10
2019-06-26T14:15:58.121Z,26.50
2019-06-26T14:18:31.491Z,26.60
2019-06-26T14:21:01.495Z,26.90
2019-06-26T14:23:31.882Z,27.50
2019-06-26T14:26:02.280Z,27.90
2019-06-26T14:28:32.563Z,28.00
2019-06-26T14:31:02.507Z,27.20
2019-06-26T14:33:33.040Z,28.60
2019-06-26T14:36:06.619Z,28.80
2019-06-26T14:38:37.663Z,29.00
2019-06-26T14:41:07.989Z,29.30
2019-06-26T14:43:38.228Z,28.90
2019-06-26T14:46:08.534Z,28.20
2019-06-26T14:48:38.822Z,27.80
2019-06-26T14:51:09.195Z,28.30
2019-06-26T14:53:39.164Z,27.50
2019-06-26T14:56:19.250Z,27.80
2019-06-26T14:58:52.850Z,27.40
2019-06-26T15:01:22.766Z,27.50
2019-06-26T15:03:52.983Z,27.20
2019-06-26T15:06:23.250Z,29.70
2019-06-26T15:08:53.683Z,28.30
2019-06-26T15:11:23.655Z,28.80
2019-06-26T15:13:53.672Z,28.40
2019-06-26T15:16:24.067Z,29.00
2019-06-26T15:18:54.445Z,28.00
2019-06-26T15:21:24.707Z,28.00
2019-06-26T15:23:54.759Z,28.20
2019-06-26T15:26:24.700Z,28.60
2019-06-26T15:28:55.037Z,28.80
2019-06-26T15:31:24.863Z,29.80
2019-06-26T15:33:55.175Z,29.50
2019-06-26T15:36:25.389Z,29.50
2019-06-26T15:38:59.050Z,29.60
2019-06-26T15:41:27.657Z,29.50
2019-06-26T15:43:59.198Z,29.90
2019-06-26T15:46:29.633Z,29.10
2019-06-26T15:49:00.040Z,29.80
2019-06-26T15:51:30.415Z,29.60
2019-06-26T15:54:02.797Z,29.90
2019-06-26T15:56:33.021Z,30.00
2019-06-26T15:59:03.311Z,30.00
2019-06-26T16:01:33.614Z,32.40
2019-06-26T16:04:04.062Z,32.10
2019-06-26T16:06:33.979Z,32.30
2019-06-26T16:09:05.482Z,33.10
2019-06-26T16:11:37.203Z,32.40
2019-06-26T16:14:07.656Z,33.00
2019-06-26T16:16:39.209Z,32.00
2019-06-26T16:19:11.407Z,32.00
2019-06-26T16:21:44.909Z,32.80
2019-06-26T16:24:15.316Z,32.40
2019-06-26T16:26:45.461Z,32.20
2019-06-26T16:29:15.885Z,32.10
2019-06-26T16:31:46.181Z,33.90
2019-06-26T16:34:17.701Z,34.00
2019-06-26T16:36:48.069Z,32.60
2019-06-26T16:39:18.292Z,33.80
2019-06-26T16:41:50.289Z,34.80
2019-06-26T16:44:21.111Z,34.00
2019-06-26T16:46:53.009Z,33.10
2019-06-26T16:49:23.272Z,33.80
2019-06-26T16:51:53.521Z,34.90
2019-06-26T16:54:23.420Z,35.10
2019-06-26T16:56:53.809Z,34.50
2019-06-26T16:59:24.079Z,34.30
2019-06-26T17:01:54.585Z,34.40
2019-06-26T17:04:24.944Z,34.00
2019-06-26T17:06:57.178Z,33.80
2019-06-26T17:09:27.466Z,35.10
2019-06-26T17:11:58.060Z,35.30
2019-06-26T17:14:28.307Z,35.20
2019-06-26T17:16:58.236Z,35.90
2019-06-26T17:19:28.236Z,35.50
2019-06-26T17:21:59.701Z,35.70
2019-06-26T17:24:29.788Z,35.70
2019-06-26T17:26:59.881Z,39.00
2019-06-26T17:29:31.806Z,42.90
2019-06-26T17:32:02.160Z,43.20
2019-06-26T17:34:32.310Z,43.10
2019-06-26T17:37:02.620Z,45.40
2019-06-26T17:39:32.542Z,45.00
2019-06-26T17:42:02.865Z,44.90
2019-06-26T17:44:33.191Z,47.00
2019-06-26T17:47:05.470Z,46.40
2019-06-26T17:49:35.210Z,46.40
2019-06-26T17:52:05.799Z,45.50
2019-06-26T17:54:36.058Z,45.10
2019-06-26T17:57:06.452Z,45.80
2019-06-26T17:59:36.471Z,47.00
2019-06-26T18:02:06.843Z,49.00
2019-06-26T18:04:37.133Z,49.90
2019-06-26T18:07:07.431Z,51.00
2019-06-26T18:09:37.740Z,52.10
2019-06-26T18:12:08.058Z,52.80
2019-06-26T18:14:38.040Z,52.60
2019-06-26T18:17:21.473Z,52.10
2019-06-26T18:19:40.127Z,52.20
2019-06-26T18:22:11.714Z,52.60
2019-06-26T18:24:42.050Z,53.10
2019-06-26T18:27:12.314Z,53.60
2019-06-26T18:29:44.114Z,54.20
2019-06-26T18:32:15.488Z,54.70
2019-06-26T18:34:46.888Z,55.20
2019-06-26T18:37:17.462Z,55.60
2019-06-26T18:39:47.487Z,55.80
2019-06-26T18:42:19.542Z,56.00
2019-06-26T18:44:49.744Z,56.20
2019-06-26T18:47:20.039Z,56.20
2019-06-26T18:49:50.644Z,56.60
2019-06-26T18:52:22.139Z,58.20
2019-06-26T18:54:52.241Z,58.90
2019-06-26T18:57:22.129Z,58.00
2019-06-26T18:59:52.348Z,60.00
2019-06-26T19:02:22.770Z,60.20
2019-06-26T19:04:54.219Z,62.10
2019-06-26T19:07:27.608Z,63.80
2019-06-26T19:09:58.084Z,63.00
2019-06-26T19:12:28.144Z,63.00
2019-06-26T19:14:58.186Z,63.30
2019-06-26T19:17:28.476Z,63.50
2019-06-26T19:19:58.924Z,64.30
2019-06-26T19:22:29.554Z,64.90
2019-06-26T19:24:59.714Z,66.00
2019-06-26T19:27:30.482Z,66.50
2019-06-26T19:30:00.824Z,66.40
2019-06-26T19:32:31.206Z,65.80
2019-06-26T19:35:08.338Z,66.10
2019-06-26T19:37:33.837Z,66.90
2019-06-26T19:40:08.281Z,67.60
2019-06-26T19:42:36.877Z,67.70
2019-06-26T19:45:08.572Z,67.60
2019-06-26T19:47:39.630Z,68.40
2019-06-26T19:50:11.340Z,68.40
2019-06-26T19:52:41.614Z,68.40
2019-06-26T19:55:12.119Z,68.80
2019-06-26T19:57:42.561Z,68.90
2019-06-26T20:00:13.166Z,69.30
2019-06-26T20:02:43.415Z,69.90
2019-06-26T20:05:14.121Z,70.50
2019-06-26T20:07:44.459Z,70.70
2019-06-26T20:10:15.551Z,70.50
2019-06-26T20:12:45.817Z,70.80
2019-06-26T20:15:16.140Z,70.30
2019-06-26T20:17:46.364Z,70.40
2019-06-26T20:20:17.716Z,70.80
2019-06-26T20:22:47.635Z,71.10
2019-06-26T20:25:18.025Z,71.40
2019-06-26T20:27:48.259Z,72.90
2019-06-26T20:30:21.331Z,72.90
2019-06-26T20:32:51.765Z,73.40
2019-06-26T20:35:21.923Z,73.50
2019-06-26T20:37:52.226Z,73.00
2019-06-26T20:40:23.049Z,72.90
2019-06-26T20:42:53.027Z,72.50
2019-06-26T20:45:23.186Z,71.80
2019-06-26T20:47:53.192Z,71.80
2019-06-26T20:50:23.096Z,72.30
2019-06-26T20:52:53.346Z,72.40
2019-06-26T20:55:23.692Z,72.20
2019-06-26T20:57:53.973Z,72.50
2019-06-26T21:00:23.900Z,72.70
2019-06-26T21:02:54.626Z,73.10
2019-06-26T21:05:28.622Z,73.80
2019-06-26T21:07:56.366Z,74.10
2019-06-26T21:10:26.531Z,74.40
2019-06-26T21:12:56.750Z,74.50
2019-06-26T21:15:27.066Z,75.00
2019-06-26T21:17:57.421Z,75.60
2019-06-26T21:20:46.665Z,75.20
2019-06-26T21:23:18.757Z,75.30
2019-06-26T21:25:48.852Z,75.30
2019-06-26T21:28:19.209Z,75.30
2019-06-26T21:30:49.630Z,75.80
2019-06-26T21:33:19.656Z,76.10
2019-06-26T21:35:50.055Z,76.20
2019-06-26T21:38:20.448Z,76.30
2019-06-26T21:40:50.870Z,76.10
2019-06-26T21:43:21.105Z,76.00
2019-06-26T21:45:51.427Z,76.00
2019-06-26T21:48:21.661Z,76.30
2019-06-26T21:50:51.815Z,76.70
2019-06-26T21:53:22.138Z,77.10
2019-06-26T21:56:10.248Z,77.40
2019-06-26T21:58:58.224Z,77.80
2019-06-26T22:01:45.991Z,78.00
2019-06-26T22:04:33.749Z,78.50
2019-06-26T22:07:11.684Z,78.60
2019-06-26T22:09:52.295Z,78.60
2019-06-26T22:12:23.875Z,78.70
2019-06-26T22:14:53.929Z,78.40
2019-06-26T22:17:24.506Z,78.70
2019-06-26T22:19:54.835Z,78.70
2019-06-26T22:22:24.781Z,78.70
2019-06-26T22:24:55.057Z,78.70
2019-06-26T22:27:25.286Z,78.90
2019-06-26T22:29:55.189Z,78.80
2019-06-26T22:32:25.424Z,78.70
2019-06-26T22:34:55.875Z,78.50
2019-06-26T22:37:26.182Z,78.60
2019-06-26T22:39:56.552Z,79.10
2019-06-26T22:42:26.861Z,78.40
2019-06-26T22:44:57.249Z,78.10
2019-06-26T22:47:28.971Z,78.40
2019-06-26T22:49:59.312Z,78.20
2019-06-26T22:52:29.569Z,78.10
2019-06-26T22:54:59.839Z,78.20
2019-06-26T22:57:30.168Z,78.40
2019-06-26T23:00:00.501Z,78.80
2019-06-26T23:02:30.956Z,78.80
2019-06-26T23:05:01.162Z,79.20
2019-06-26T23:07:31.393Z,79.80
2019-06-26T23:10:01.776Z,79.80
2019-06-26T23:12:33.348Z,80.40
2019-06-26T23:15:04.873Z,80.90
2019-06-26T23:17:35.230Z,80.30
2019-06-26T23:20:07.678Z,80.50
2019-06-26T23:22:38.837Z,80.40
2019-06-26T23:25:09.595Z,80.30
2019-06-26T23:27:40.600Z,80.80
2019-06-26T23:30:20.418Z,81.50
2019-06-26T23:32:50.859Z,82.10
2019-06-26T23:35:21.180Z,82.00
2019-06-26T23:37:51.522Z,81.90
2019-06-26T23:40:21.907Z,82.20
2019-06-26T23:42:52.047Z,82.20
2019-06-26T23:45:22.264Z,83.20
2019-06-26T23:47:52.385Z,82.40
2019-06-26T23:50:22.600Z,82.90
2019-06-26T23:52:52.823Z,83.00
2019-06-26T23:55:25.891Z,83.10
2019-06-26T23:57:59.337Z,84.20
